createdAt,value
2023-01-29T00:00:27.979Z,320
2023-01-29T00:01:12.457Z,320
2023-01-29T00:01:15.398Z,321
2023-01-29T00:02:01.622Z,322
2023-01-29T00:02:31.908Z,323
2023-01-29T00:03:04.507Z,323
2023-01-29T00:03:33.957Z,325
2023-01-29T00:04:06.475Z,327
2023-01-29T00:04:36.297Z,327
2023-01-29T00:05:26.144Z,328
2023-01-29T00:05:37.829Z,328
2023-01-29T00:06:09.492Z,329
2023-01-29T00:06:40.396Z,329
2023-01-29T00:07:10.823Z,329
2023-01-29T00:07:42.392Z,330
2023-01-29T00:08:12.803Z,330
2023-01-29T00:08:44.470Z,331
2023-01-29T00:09:14.803Z,332
2023-01-29T00:09:46.853Z,332
2023-01-29T00:10:18.189Z,333
2023-01-29T00:10:48.384Z,334
2023-01-29T00:11:18.778Z,334
2023-01-29T00:11:50.601Z,333
2023-01-29T00:12:21.269Z,333
2023-01-29T00:12:52.983Z,332
2023-01-29T00:13:23.090Z,332
2023-01-29T00:13:54.923Z,332
2023-01-29T00:14:24.773Z,331
2023-01-29T00:14:57.498Z,331
2023-01-29T00:15:28.514Z,331
2023-01-29T00:15:59.714Z,331
2023-01-29T00:16:28.801Z,331
2023-01-29T00:17:00.939Z,330
2023-01-29T00:17:31.075Z,330
2023-01-29T00:18:02.814Z,330
2023-01-29T00:18:32.811Z,330
2023-01-29T00:19:05.103Z,330
2023-01-29T00:19:36.369Z,330
2023-01-29T00:20:06.411Z,329
2023-01-29T00:20:38.620Z,329
2023-01-29T00:21:09.100Z,330
2023-01-29T00:21:38.820Z,329
2023-01-29T00:22:17.102Z,329
2023-01-29T00:22:20.136Z,328
2023-01-29T00:22:41.205Z,328
2023-01-29T00:23:11.806Z,328
2023-01-29T00:23:43.393Z,328
2023-01-29T00:24:13.878Z,327
2023-01-29T00:24:45.934Z,328
2023-01-29T00:25:16.374Z,328
2023-01-29T00:25:52.789Z,328
2023-01-29T00:26:17.871Z,328
2023-01-29T00:26:48.824Z,328
2023-01-29T00:27:20.419Z,329
2023-01-29T00:27:50.996Z,329
2023-01-29T00:28:22.378Z,329
2023-01-29T00:28:53.049Z,329
2023-01-29T00:29:24.403Z,329
2023-01-29T00:29:54.796Z,330
2023-01-29T00:30:27.519Z,330
2023-01-29T00:30:57.988Z,330
2023-01-29T00:31:28.648Z,330
2023-01-29T00:31:59.007Z,330
2023-01-29T00:32:29.798Z,333
2023-01-29T00:33:02.148Z,333
2023-01-29T00:33:32.392Z,333
2023-01-29T00:34:02.853Z,334
2023-01-29T00:34:35.362Z,334
2023-01-29T00:35:05.723Z,335
2023-01-29T00:35:36.713Z,335
2023-01-29T00:36:07.829Z,335
2023-01-29T00:36:38.394Z,335
2023-01-29T00:37:09.171Z,335
2023-01-29T00:37:41.291Z,335
2023-01-29T00:38:10.781Z,335
2023-01-29T00:38:42.447Z,335
2023-01-29T00:39:12.791Z,335
2023-01-29T00:39:48.244Z,334
2023-01-29T00:40:15.785Z,333
2023-01-29T00:40:46.455Z,333
2023-01-29T00:41:17.775Z,333
2023-01-29T00:41:48.397Z,332
2023-01-29T00:42:18.799Z,332
2023-01-29T00:42:52.483Z,330
2023-01-29T00:43:21.320Z,330
2023-01-29T00:43:52.228Z,330
2023-01-29T00:44:23.539Z,329
2023-01-29T00:44:53.768Z,328
2023-01-29T00:45:26.227Z,328
2023-01-29T00:45:55.834Z,328
2023-01-29T00:46:28.543Z,327
2023-01-29T00:46:57.938Z,327
2023-01-29T00:47:30.484Z,327
2023-01-29T00:47:59.808Z,327
2023-01-29T00:48:31.593Z,327
2023-01-29T00:49:01.785Z,327
2023-01-29T00:49:33.760Z,327
2023-01-29T00:50:04.440Z,329
2023-01-29T00:50:36.278Z,330
2023-01-29T00:51:05.871Z,330
2023-01-29T00:51:38.423Z,330
2023-01-29T00:52:07.809Z,330
2023-01-29T00:52:39.466Z,329
2023-01-29T00:53:10.610Z,328
2023-01-29T00:53:41.776Z,327
2023-01-29T00:54:11.816Z,327
2023-01-29T00:54:43.385Z,326
2023-01-29T00:55:14.259Z,325
2023-01-29T00:55:45.461Z,325
2023-01-29T00:56:15.845Z,324
2023-01-29T00:56:48.399Z,323
2023-01-29T00:57:18.545Z,322
2023-01-29T00:57:49.448Z,321
2023-01-29T00:58:19.832Z,319
2023-01-29T00:58:51.440Z,317
2023-01-29T00:59:21.938Z,315
2023-01-29T00:59:53.881Z,315
2023-01-29T01:00:24.699Z,314
2023-01-29T01:00:55.544Z,312
2023-01-29T01:01:25.885Z,311
2023-01-29T01:01:58.427Z,311
2023-01-29T01:02:27.925Z,310
2023-01-29T01:02:59.661Z,311
2023-01-29T01:03:29.928Z,312
2023-01-29T01:04:08.178Z,312
2023-01-29T01:04:17.928Z,312
2023-01-29T01:04:56.169Z,312
2023-01-29T01:05:03.297Z,311
2023-01-29T01:05:33.801Z,311
2023-01-29T01:06:05.217Z,311
2023-01-29T01:06:35.855Z,311
2023-01-29T01:07:08.530Z,312
2023-01-29T01:07:37.823Z,313
2023-01-29T01:08:11.454Z,313
2023-01-29T01:08:39.831Z,314
2023-01-29T01:09:10.973Z,314
2023-01-29T01:09:42.423Z,315
2023-01-29T01:10:13.561Z,315
2023-01-29T01:10:44.446Z,314
2023-01-29T01:11:14.816Z,311
2023-01-29T01:11:46.455Z,311
2023-01-29T01:12:17.809Z,310
2023-01-29T01:12:48.409Z,310
2023-01-29T01:13:18.758Z,309
2023-01-29T01:13:50.455Z,308
2023-01-29T01:14:21.044Z,308
2023-01-29T01:14:52.893Z,307
2023-01-29T01:15:23.592Z,307
2023-01-29T01:15:54.669Z,307
2023-01-29T01:16:24.842Z,306
2023-01-29T01:16:56.381Z,304
2023-01-29T01:17:27.841Z,304
2023-01-29T01:17:58.711Z,303
2023-01-29T01:18:28.750Z,303
2023-01-29T01:19:00.407Z,302
2023-01-29T01:19:30.849Z,302
2023-01-29T01:20:03.521Z,302
2023-01-29T01:20:38.548Z,302
2023-01-29T01:21:04.440Z,301
2023-01-29T01:21:34.889Z,303
2023-01-29T01:22:06.427Z,303
2023-01-29T01:22:37.983Z,302
2023-01-29T01:23:08.392Z,302
2023-01-29T01:23:38.758Z,301
2023-01-29T01:24:10.536Z,300
2023-01-29T01:24:40.793Z,299
2023-01-29T01:25:17.108Z,299
2023-01-29T01:25:42.785Z,299
2023-01-29T01:26:13.802Z,299
2023-01-29T01:26:46.172Z,300
2023-01-29T01:27:15.819Z,301
2023-01-29T01:27:48.369Z,301
2023-01-29T01:28:17.900Z,301
2023-01-29T01:28:50.739Z,300
2023-01-29T01:29:19.818Z,300
2023-01-29T01:29:51.605Z,299
2023-01-29T01:30:23.182Z,298
2023-01-29T01:30:53.630Z,298
2023-01-29T01:31:24.003Z,298
2023-01-29T01:31:55.696Z,296
2023-01-29T01:32:25.791Z,295
2023-01-29T01:32:57.845Z,296
2023-01-29T01:33:28.786Z,297
2023-01-29T01:33:58.836Z,298
2023-01-29T01:34:30.398Z,299
2023-01-29T01:35:01.907Z,299
2023-01-29T01:35:34.782Z,299
2023-01-29T01:36:02.930Z,300
2023-01-29T01:36:34.337Z,300
2023-01-29T01:37:05.386Z,300
2023-01-29T01:37:36.114Z,300
2023-01-29T01:38:08.857Z,299
2023-01-29T01:38:37.997Z,298
2023-01-29T01:39:10.941Z,297
2023-01-29T01:39:39.786Z,297
2023-01-29T01:40:12.703Z,299
2023-01-29T01:40:43.661Z,299
2023-01-29T01:41:13.389Z,299
2023-01-29T01:41:43.786Z,299
2023-01-29T01:42:15.380Z,298
2023-01-29T01:42:46.090Z,297
2023-01-29T01:43:18.761Z,297
2023-01-29T01:43:47.886Z,295
2023-01-29T01:44:19.726Z,294
2023-01-29T01:44:49.852Z,293
2023-01-29T01:45:22.676Z,292
2023-01-29T01:45:52.339Z,293
2023-01-29T01:46:23.998Z,294
2023-01-29T01:46:53.880Z,294
2023-01-29T01:47:25.996Z,294
2023-01-29T01:47:56.000Z,293
2023-01-29T01:48:28.426Z,292
2023-01-29T01:48:57.911Z,292
2023-01-29T01:49:30.007Z,293
2023-01-29T01:50:00.893Z,294
2023-01-29T01:50:32.047Z,292
2023-01-29T01:51:02.425Z,293
2023-01-29T01:51:34.399Z,294
2023-01-29T01:52:04.022Z,295
2023-01-29T01:52:36.312Z,297
2023-01-29T01:53:06.123Z,299
2023-01-29T01:53:40.040Z,301
2023-01-29T01:54:07.999Z,304
2023-01-29T01:54:38.772Z,306
2023-01-29T01:55:11.383Z,307
2023-01-29T01:55:40.993Z,311
2023-01-29T01:56:14.170Z,312
2023-01-29T01:56:42.875Z,313
2023-01-29T01:57:14.588Z,313
2023-01-29T01:57:45.151Z,315
2023-01-29T01:58:16.600Z,317
2023-01-29T01:58:47.866Z,319
2023-01-29T01:59:18.732Z,321
2023-01-29T01:59:48.987Z,323
2023-01-29T02:00:22.915Z,323
2023-01-29T02:00:51.336Z,324
2023-01-29T02:01:25.646Z,324
2023-01-29T02:01:53.027Z,325
2023-01-29T02:02:24.757Z,326
2023-01-29T02:02:54.782Z,326
2023-01-29T02:03:27.707Z,326
2023-01-29T02:03:58.021Z,326
2023-01-29T02:04:28.957Z,326
2023-01-29T02:04:59.667Z,325
2023-01-29T02:05:30.954Z,324
2023-01-29T02:06:01.316Z,322
2023-01-29T02:06:32.982Z,320
2023-01-29T02:07:02.926Z,318
2023-01-29T02:07:34.696Z,318
2023-01-29T02:08:05.054Z,317
2023-01-29T02:08:36.723Z,318
2023-01-29T02:09:08.091Z,318
2023-01-29T02:09:38.942Z,317
2023-01-29T02:10:09.237Z,315
2023-01-29T02:10:40.774Z,314
2023-01-29T02:11:11.330Z,314
2023-01-29T02:11:43.127Z,313
2023-01-29T02:12:12.757Z,311
2023-01-29T02:12:44.357Z,311
2023-01-29T02:13:14.811Z,311
2023-01-29T02:13:47.278Z,311
2023-01-29T02:14:18.054Z,311
2023-01-29T02:14:48.788Z,311
2023-01-29T02:15:19.739Z,310
2023-01-29T02:15:52.434Z,312
2023-01-29T02:16:21.492Z,312
2023-01-29T02:16:52.100Z,314
2023-01-29T02:17:23.385Z,315
2023-01-29T02:17:54.209Z,314
2023-01-29T02:18:25.377Z,313
2023-01-29T02:18:55.999Z,310
2023-01-29T02:19:28.445Z,310
2023-01-29T02:19:57.898Z,308
2023-01-29T02:20:36.512Z,307
2023-01-29T02:20:59.805Z,307
2023-01-29T02:21:32.437Z,308
2023-01-29T02:22:01.973Z,308
2023-01-29T02:22:33.361Z,309
2023-01-29T02:23:03.912Z,309
2023-01-29T02:23:35.463Z,308
2023-01-29T02:24:05.851Z,307
2023-01-29T02:24:38.403Z,307
2023-01-29T02:25:08.175Z,306
2023-01-29T02:25:39.359Z,306
2023-01-29T02:26:09.799Z,306
2023-01-29T02:26:41.385Z,307
2023-01-29T02:27:12.045Z,306
2023-01-29T02:27:43.390Z,306
2023-01-29T02:28:13.760Z,308
2023-01-29T02:28:47.490Z,311
2023-01-29T02:29:15.811Z,313
2023-01-29T02:29:48.831Z,314
2023-01-29T02:30:19.232Z,316
2023-01-29T02:30:49.464Z,318
2023-01-29T02:31:20.348Z,320
2023-01-29T02:31:51.415Z,321
2023-01-29T02:32:21.751Z,322
2023-01-29T02:32:52.744Z,323
2023-01-29T02:33:24.336Z,323
2023-01-29T02:33:54.794Z,323
2023-01-29T02:34:28.449Z,324
2023-01-29T02:34:58.177Z,324
2023-01-29T02:35:27.767Z,324
2023-01-29T02:35:59.364Z,324
2023-01-29T02:36:29.816Z,324
2023-01-29T02:37:01.368Z,323
2023-01-29T02:37:32.153Z,322
2023-01-29T02:38:03.548Z,321
2023-01-29T02:38:33.767Z,320
2023-01-29T02:39:08.354Z,316
2023-01-29T02:39:35.781Z,314
2023-01-29T02:40:08.245Z,312
2023-01-29T02:40:39.675Z,310
2023-01-29T02:41:08.806Z,309
2023-01-29T02:41:40.416Z,307
2023-01-29T02:42:10.759Z,306
2023-01-29T02:42:42.387Z,305
2023-01-29T02:43:12.799Z,305
2023-01-29T02:43:44.372Z,305
2023-01-29T02:44:14.821Z,306
2023-01-29T02:44:46.377Z,305
2023-01-29T02:45:18.544Z,304
2023-01-29T02:45:48.534Z,302
2023-01-29T02:46:18.823Z,301
2023-01-29T02:46:50.352Z,298
2023-01-29T02:47:21.282Z,298
2023-01-29T02:47:52.638Z,298
2023-01-29T02:48:22.795Z,297
2023-01-29T02:48:56.369Z,296
2023-01-29T02:49:25.048Z,296
2023-01-29T02:49:55.838Z,296
2023-01-29T02:50:29.153Z,298
2023-01-29T02:50:58.056Z,300
2023-01-29T02:51:32.821Z,301
2023-01-29T02:52:00.117Z,302
2023-01-29T02:52:31.088Z,301
2023-01-29T02:53:04.848Z,301
2023-01-29T02:53:33.117Z,300
2023-01-29T02:54:04.065Z,299
2023-01-29T02:54:38.856Z,298
2023-01-29T02:55:06.767Z,297
2023-01-29T02:55:38.095Z,298
2023-01-29T02:56:08.787Z,302
2023-01-29T02:56:39.171Z,304
2023-01-29T02:57:13.238Z,306
2023-01-29T02:57:41.166Z,307
2023-01-29T02:58:12.516Z,309
2023-01-29T02:58:43.478Z,310
2023-01-29T02:59:14.155Z,312
2023-01-29T02:59:45.741Z,313
2023-01-29T03:00:18.116Z,315
2023-01-29T03:00:50.478Z,315
2023-01-29T03:01:17.982Z,315
2023-01-29T03:01:49.545Z,315
2023-01-29T03:02:20.019Z,315
2023-01-29T03:02:54.596Z,316
2023-01-29T03:03:22.129Z,317
2023-01-29T03:03:53.192Z,318
2023-01-29T03:04:25.690Z,319
2023-01-29T03:04:56.056Z,320
2023-01-29T03:05:27.665Z,321
2023-01-29T03:05:58.083Z,322
2023-01-29T03:06:31.963Z,320
2023-01-29T03:06:58.755Z,320
2023-01-29T03:07:29.943Z,319
2023-01-29T03:08:02.849Z,319
2023-01-29T03:08:32.313Z,319
2023-01-29T03:09:03.445Z,319
2023-01-29T03:09:33.809Z,319
2023-01-29T03:10:06.878Z,319
2023-01-29T03:10:35.858Z,318
2023-01-29T03:11:08.559Z,318
2023-01-29T03:11:38.160Z,318
2023-01-29T03:12:09.786Z,318
2023-01-29T03:12:39.853Z,318
2023-01-29T03:13:13.848Z,318
2023-01-29T03:13:41.819Z,318
2023-01-29T03:14:13.051Z,318
2023-01-29T03:14:45.465Z,318
2023-01-29T03:15:15.988Z,318
2023-01-29T03:15:46.849Z,318
2023-01-29T03:16:17.931Z,318
2023-01-29T03:16:49.975Z,318
2023-01-29T03:17:19.300Z,318
2023-01-29T03:17:50.841Z,318
2023-01-29T03:18:21.461Z,318
2023-01-29T03:18:53.076Z,318
2023-01-29T03:19:23.144Z,318
2023-01-29T03:19:54.747Z,318
2023-01-29T03:20:25.501Z,317
2023-01-29T03:20:57.240Z,315
2023-01-29T03:21:28.038Z,313
2023-01-29T03:21:58.772Z,311
2023-01-29T03:22:29.167Z,309
2023-01-29T03:23:00.439Z,307
2023-01-29T03:23:30.771Z,304
2023-01-29T03:24:03.442Z,303
2023-01-29T03:24:33.701Z,300
2023-01-29T03:25:05.187Z,297
2023-01-29T03:25:34.968Z,293
2023-01-29T03:26:06.909Z,289
2023-01-29T03:26:37.868Z,286
2023-01-29T03:27:16.810Z,282
2023-01-29T03:27:38.750Z,279
2023-01-29T03:28:09.776Z,276
2023-01-29T03:28:41.546Z,273
2023-01-29T03:29:12.239Z,271
2023-01-29T03:29:43.957Z,180
2023-01-29T03:30:15.331Z,180
2023-01-29T03:30:45.600Z,180
2023-01-29T03:31:16.059Z,180
2023-01-29T03:31:48.439Z,180
2023-01-29T03:32:18.071Z,180
2023-01-29T03:32:49.035Z,180
2023-01-29T03:33:20.802Z,180
2023-01-29T03:33:51.214Z,180
2023-01-29T03:34:22.954Z,180
2023-01-29T03:34:53.026Z,271
2023-01-29T03:35:26.322Z,272
2023-01-29T03:35:55.037Z,274
2023-01-29T03:36:26.397Z,278
2023-01-29T03:36:57.982Z,280
2023-01-29T03:37:28.731Z,283
2023-01-29T03:37:58.763Z,285
2023-01-29T03:38:30.467Z,287
2023-01-29T03:39:01.296Z,290
2023-01-29T03:39:37.084Z,292
2023-01-29T03:40:03.354Z,292
2023-01-29T03:40:35.676Z,292
2023-01-29T03:41:08.487Z,292
2023-01-29T03:41:36.122Z,292
2023-01-29T03:42:08.038Z,292
2023-01-29T03:42:38.473Z,291
2023-01-29T03:43:08.869Z,290
2023-01-29T03:43:40.507Z,289
2023-01-29T03:44:10.846Z,287
2023-01-29T03:44:49.179Z,287
2023-01-29T03:44:58.877Z,285
2023-01-29T03:45:37.226Z,285
2023-01-29T03:45:45.021Z,283
2023-01-29T03:46:15.553Z,284
2023-01-29T03:46:45.969Z,285
2023-01-29T03:47:18.755Z,285
2023-01-29T03:47:48.246Z,284
2023-01-29T03:48:20.478Z,285
2023-01-29T03:48:49.944Z,284
2023-01-29T03:49:21.507Z,284
2023-01-29T03:49:52.228Z,283
2023-01-29T03:50:27.031Z,283
2023-01-29T03:50:53.954Z,285
2023-01-29T03:51:24.777Z,287
2023-01-29T03:51:56.615Z,289
2023-01-29T03:52:27.834Z,289
2023-01-29T03:52:58.824Z,290
2023-01-29T03:53:28.945Z,290
2023-01-29T03:54:01.013Z,290
2023-01-29T03:54:30.826Z,291
2023-01-29T03:55:11.092Z,292
2023-01-29T03:55:32.946Z,292
2023-01-29T03:56:04.045Z,293
2023-01-29T03:56:36.114Z,292
2023-01-29T03:57:05.742Z,290
2023-01-29T03:57:38.343Z,290
2023-01-29T03:58:08.029Z,289
2023-01-29T03:58:39.666Z,288
2023-01-29T03:59:09.731Z,288
2023-01-29T03:59:42.364Z,286
2023-01-29T04:00:14.319Z,284
2023-01-29T04:00:45.087Z,284
2023-01-29T04:01:14.031Z,284
2023-01-29T04:01:52.388Z,283
2023-01-29T04:02:15.786Z,283
2023-01-29T04:02:47.983Z,283
2023-01-29T04:03:19.125Z,281
2023-01-29T04:03:49.085Z,281
2023-01-29T04:04:27.849Z,281
2023-01-29T04:04:36.560Z,282
2023-01-29T04:05:16.355Z,282
2023-01-29T04:05:22.114Z,282
2023-01-29T04:05:53.213Z,282
2023-01-29T04:06:26.391Z,282
2023-01-29T04:06:54.800Z,282
2023-01-29T04:07:25.888Z,281
2023-01-29T04:08:02.132Z,281
2023-01-29T04:08:27.868Z,280
2023-01-29T04:08:59.140Z,281
2023-01-29T04:09:30.392Z,280
2023-01-29T04:10:01.805Z,280
2023-01-29T04:10:32.774Z,281
2023-01-29T04:11:02.977Z,282
2023-01-29T04:11:35.272Z,282
2023-01-29T04:12:05.068Z,283
2023-01-29T04:12:36.410Z,282
2023-01-29T04:13:07.736Z,282
2023-01-29T04:13:46.075Z,282
2023-01-29T04:13:53.923Z,282
2023-01-29T04:14:32.186Z,282
2023-01-29T04:14:39.831Z,284
2023-01-29T04:15:14.180Z,286
2023-01-29T04:15:41.917Z,287
2023-01-29T04:16:14.409Z,289
2023-01-29T04:16:43.833Z,291
2023-01-29T04:17:22.391Z,294
2023-01-29T04:17:45.782Z,298
2023-01-29T04:18:17.817Z,304
2023-01-29T04:18:48.892Z,308
2023-01-29T04:19:18.815Z,311
2023-01-29T04:19:50.420Z,315
2023-01-29T04:20:21.296Z,318
2023-01-29T04:20:52.797Z,321
2023-01-29T04:21:22.765Z,323
2023-01-29T04:21:56.316Z,326
2023-01-29T04:22:24.786Z,328
2023-01-29T04:22:55.807Z,330
2023-01-29T04:23:30.194Z,333
2023-01-29T04:23:57.845Z,334
2023-01-29T04:24:28.818Z,336
2023-01-29T04:25:01.415Z,337
2023-01-29T04:25:31.115Z,337
2023-01-29T04:26:04.456Z,338
2023-01-29T04:26:32.714Z,339
2023-01-29T04:27:03.755Z,340
2023-01-29T04:27:37.326Z,341
2023-01-29T04:28:05.754Z,338
2023-01-29T04:28:38.344Z,336
2023-01-29T04:29:07.710Z,336
2023-01-29T04:29:42.235Z,335
2023-01-29T04:30:10.841Z,333
2023-01-29T04:30:40.874Z,332
2023-01-29T04:31:12.775Z,332
2023-01-29T04:31:43.360Z,331
2023-01-29T04:32:14.883Z,331
2023-01-29T04:32:45.238Z,329
2023-01-29T04:33:15.959Z,327
2023-01-29T04:33:49.691Z,326
2023-01-29T04:34:18.118Z,326
2023-01-29T04:34:48.747Z,326
2023-01-29T04:35:20.839Z,326
2023-01-29T04:35:51.001Z,326
2023-01-29T04:36:22.342Z,324
2023-01-29T04:36:52.753Z,324
2023-01-29T04:37:24.956Z,323
2023-01-29T04:37:54.718Z,322
2023-01-29T04:38:26.344Z,321
2023-01-29T04:38:57.762Z,320
2023-01-29T04:39:28.943Z,317
2023-01-29T04:39:59.243Z,315
2023-01-29T04:40:35.807Z,314
2023-01-29T04:41:00.824Z,312
2023-01-29T04:41:33.674Z,311
2023-01-29T04:42:03.081Z,311
2023-01-29T04:42:35.040Z,309
2023-01-29T04:43:04.732Z,310
2023-01-29T04:43:36.664Z,311
2023-01-29T04:44:07.852Z,309
2023-01-29T04:44:38.737Z,305
2023-01-29T04:45:10.066Z,302
2023-01-29T04:45:40.966Z,301
2023-01-29T04:46:11.197Z,301
2023-01-29T04:46:42.712Z,302
2023-01-29T04:47:13.184Z,301
2023-01-29T04:47:44.826Z,302
2023-01-29T04:48:15.206Z,302
2023-01-29T04:48:46.750Z,301
2023-01-29T04:49:18.007Z,301
2023-01-29T04:49:48.727Z,303
2023-01-29T04:50:19.606Z,306
2023-01-29T04:50:50.442Z,306
2023-01-29T04:51:21.033Z,307
2023-01-29T04:51:53.159Z,307
2023-01-29T04:52:23.297Z,305
2023-01-29T04:52:56.048Z,305
2023-01-29T04:53:25.273Z,304
2023-01-29T04:53:56.842Z,303
2023-01-29T04:54:27.884Z,304
2023-01-29T04:54:59.306Z,306
2023-01-29T04:55:29.000Z,307
2023-01-29T04:56:00.768Z,307
2023-01-29T04:56:30.954Z,307
2023-01-29T04:57:02.419Z,309
2023-01-29T04:57:32.808Z,309
2023-01-29T04:58:04.773Z,309
2023-01-29T04:58:34.951Z,311
2023-01-29T04:59:06.644Z,314
2023-01-29T04:59:37.929Z,315
2023-01-29T05:00:09.516Z,315
2023-01-29T05:00:41.163Z,316
2023-01-29T05:01:10.765Z,316
2023-01-29T05:01:41.099Z,317
2023-01-29T05:02:13.362Z,319
2023-01-29T05:02:43.075Z,320
2023-01-29T05:03:16.872Z,321
2023-01-29T05:03:45.063Z,322
2023-01-29T05:04:16.034Z,323
2023-01-29T05:04:48.436Z,324
2023-01-29T05:05:18.450Z,324
2023-01-29T05:05:49.668Z,325
2023-01-29T05:06:19.735Z,324
2023-01-29T05:06:51.906Z,323
2023-01-29T05:07:22.487Z,323
2023-01-29T05:07:53.742Z,321
2023-01-29T05:08:23.848Z,320
2023-01-29T05:08:55.776Z,317
2023-01-29T05:09:26.127Z,316
2023-01-29T05:09:59.024Z,315
2023-01-29T05:10:27.836Z,315
2023-01-29T05:11:00.019Z,314
2023-01-29T05:11:30.144Z,313
2023-01-29T05:12:03.651Z,311
2023-01-29T05:12:32.769Z,310
2023-01-29T05:13:03.152Z,311
2023-01-29T05:13:34.877Z,311
2023-01-29T05:14:04.728Z,312
2023-01-29T05:14:36.581Z,310
2023-01-29T05:15:09.995Z,310
2023-01-29T05:15:39.199Z,310
2023-01-29T05:16:09.164Z,310
2023-01-29T05:16:40.533Z,310
2023-01-29T05:17:10.986Z,311
2023-01-29T05:17:42.308Z,310
2023-01-29T05:18:12.899Z,308
2023-01-29T05:18:44.929Z,307
2023-01-29T05:19:15.384Z,306
2023-01-29T05:19:46.525Z,305
2023-01-29T05:20:18.851Z,303
2023-01-29T05:20:48.355Z,302
2023-01-29T05:21:18.726Z,302
2023-01-29T05:21:50.634Z,303
2023-01-29T05:22:20.840Z,305
2023-01-29T05:22:53.318Z,305
2023-01-29T05:23:22.801Z,307
2023-01-29T05:23:55.045Z,308
2023-01-29T05:24:24.797Z,308
2023-01-29T05:24:57.182Z,310
2023-01-29T05:25:28.005Z,314
2023-01-29T05:26:01.041Z,315
2023-01-29T05:26:28.779Z,313
2023-01-29T05:27:00.051Z,313
2023-01-29T05:27:31.634Z,314
2023-01-29T05:28:01.713Z,314
2023-01-29T05:28:34.227Z,317
2023-01-29T05:29:03.785Z,318
2023-01-29T05:29:36.464Z,320
2023-01-29T05:30:07.230Z,320
2023-01-29T05:30:39.113Z,319
2023-01-29T05:31:07.889Z,318
2023-01-29T05:31:39.428Z,318
2023-01-29T05:32:10.057Z,318
2023-01-29T05:32:41.237Z,317
2023-01-29T05:33:12.166Z,316
2023-01-29T05:33:43.352Z,315
2023-01-29T05:34:13.747Z,314
2023-01-29T05:34:45.496Z,314
2023-01-29T05:35:16.714Z,312
2023-01-29T05:35:48.357Z,310
2023-01-29T05:36:17.718Z,309
2023-01-29T05:36:49.325Z,309
2023-01-29T05:37:19.735Z,310
2023-01-29T05:37:51.422Z,309
2023-01-29T05:38:21.777Z,308
2023-01-29T05:38:53.507Z,306
2023-01-29T05:39:23.760Z,307
2023-01-29T05:39:56.824Z,307
2023-01-29T05:40:25.926Z,308
2023-01-29T05:40:58.558Z,309
2023-01-29T05:41:27.791Z,309
2023-01-29T05:41:59.366Z,309
2023-01-29T05:42:29.826Z,309
2023-01-29T05:43:01.332Z,309
2023-01-29T05:43:32.037Z,309
2023-01-29T05:44:03.471Z,309
2023-01-29T05:44:33.743Z,308
2023-01-29T05:45:06.436Z,309
2023-01-29T05:45:35.961Z,311
2023-01-29T05:46:08.371Z,311
2023-01-29T05:46:37.795Z,312
2023-01-29T05:47:09.367Z,312
2023-01-29T05:47:39.713Z,311
2023-01-29T05:48:11.354Z,312
2023-01-29T05:48:41.749Z,312
2023-01-29T05:49:13.364Z,313
2023-01-29T05:49:43.742Z,311
2023-01-29T05:50:16.167Z,309
2023-01-29T05:50:45.722Z,309
2023-01-29T05:51:18.316Z,310
2023-01-29T05:51:47.725Z,310
2023-01-29T05:52:19.627Z,309
2023-01-29T05:52:49.972Z,309
2023-01-29T05:53:21.501Z,308
2023-01-29T05:53:52.023Z,309
2023-01-29T05:54:23.340Z,309
2023-01-29T05:54:53.735Z,308
2023-01-29T05:55:26.238Z,307
2023-01-29T05:55:55.775Z,305
2023-01-29T05:56:28.574Z,302
2023-01-29T05:56:57.931Z,301
2023-01-29T05:57:32.290Z,300
2023-01-29T05:58:00.198Z,301
2023-01-29T05:58:30.857Z,300
2023-01-29T05:59:02.834Z,300
2023-01-29T05:59:32.768Z,299
2023-01-29T06:00:05.885Z,301
2023-01-29T06:00:43.617Z,302
2023-01-29T06:01:06.386Z,304
2023-01-29T06:01:37.803Z,302
2023-01-29T06:02:08.973Z,302
2023-01-29T06:02:38.787Z,303
2023-01-29T06:03:11.877Z,303
2023-01-29T06:03:41.168Z,303
2023-01-29T06:04:13.160Z,303
2023-01-29T06:04:43.016Z,302
2023-01-29T06:05:18.563Z,303
2023-01-29T06:05:45.022Z,302
2023-01-29T06:06:16.371Z,303
2023-01-29T06:06:48.815Z,304
2023-01-29T06:07:17.742Z,304
2023-01-29T06:07:49.365Z,305
2023-01-29T06:08:19.766Z,304
2023-01-29T06:08:51.446Z,305
2023-01-29T06:09:21.727Z,305
2023-01-29T06:09:53.390Z,305
2023-01-29T06:10:24.348Z,306
2023-01-29T06:10:55.494Z,307
2023-01-29T06:11:25.720Z,306
2023-01-29T06:12:01.712Z,307
2023-01-29T06:12:27.778Z,308
2023-01-29T06:12:58.906Z,309
2023-01-29T06:13:30.647Z,310
2023-01-29T06:14:00.844Z,311
2023-01-29T06:14:33.188Z,311
2023-01-29T06:15:04.038Z,312
2023-01-29T06:15:34.476Z,310
2023-01-29T06:16:05.235Z,311
2023-01-29T06:16:36.477Z,312
2023-01-29T06:17:07.711Z,312
2023-01-29T06:17:38.497Z,312
2023-01-29T06:18:08.830Z,312
2023-01-29T06:18:40.504Z,313
2023-01-29T06:19:11.177Z,312
2023-01-29T06:19:42.936Z,311
2023-01-29T06:20:13.673Z,311
2023-01-29T06:20:44.531Z,310
2023-01-29T06:21:15.381Z,309
2023-01-29T06:21:46.528Z,310
2023-01-29T06:22:17.729Z,310
2023-01-29T06:22:48.540Z,308
2023-01-29T06:23:19.215Z,307
2023-01-29T06:23:50.555Z,305
2023-01-29T06:24:21.239Z,304
2023-01-29T06:24:52.856Z,303
2023-01-29T06:25:23.462Z,302
2023-01-29T06:25:54.812Z,303
2023-01-29T06:26:24.959Z,301
2023-01-29T06:26:56.340Z,299
2023-01-29T06:27:28.259Z,299
2023-01-29T06:27:59.553Z,299
2023-01-29T06:28:29.033Z,297
2023-01-29T06:29:00.742Z,296
2023-01-29T06:29:30.719Z,297
2023-01-29T06:30:03.725Z,299
2023-01-29T06:30:33.469Z,298
2023-01-29T06:31:22.142Z,297
2023-01-29T06:31:38.824Z,297
2023-01-29T06:32:06.419Z,297
2023-01-29T06:32:37.981Z,294
2023-01-29T06:33:07.854Z,292
2023-01-29T06:33:45.442Z,291
2023-01-29T06:34:11.909Z,291
2023-01-29T06:34:41.045Z,291
2023-01-29T06:35:13.474Z,292
2023-01-29T06:35:42.743Z,293
2023-01-29T06:36:15.041Z,294
2023-01-29T06:36:45.302Z,296
2023-01-29T06:37:17.252Z,297
2023-01-29T06:37:48.033Z,299
2023-01-29T06:38:19.035Z,300
2023-01-29T06:38:49.161Z,302
2023-01-29T06:39:21.150Z,304
2023-01-29T06:39:51.159Z,303
2023-01-29T06:40:23.416Z,302
2023-01-29T06:40:52.958Z,304
2023-01-29T06:41:24.578Z,303
2023-01-29T06:41:55.284Z,304
2023-01-29T06:42:28.298Z,303
2023-01-29T06:42:58.054Z,305
2023-01-29T06:43:29.867Z,307
2023-01-29T06:43:59.150Z,308
2023-01-29T06:44:30.471Z,308
2023-01-29T06:45:02.653Z,309
2023-01-29T06:45:33.813Z,307
2023-01-29T06:46:03.031Z,304
2023-01-29T06:46:35.483Z,303
2023-01-29T06:47:04.904Z,302
2023-01-29T06:47:37.489Z,302
2023-01-29T06:48:07.885Z,302
2023-01-29T06:48:38.801Z,301
2023-01-29T06:49:08.871Z,300
2023-01-29T06:49:40.787Z,299
2023-01-29T06:50:11.261Z,300
2023-01-29T06:50:47.976Z,301
2023-01-29T06:51:13.300Z,299
2023-01-29T06:51:44.204Z,301
2023-01-29T06:52:22.458Z,301
2023-01-29T06:52:46.766Z,302
2023-01-29T06:53:18.131Z,301
2023-01-29T06:53:49.599Z,301
2023-01-29T06:54:18.859Z,300
2023-01-29T06:54:50.455Z,301
2023-01-29T06:55:21.508Z,302
2023-01-29T06:55:53.647Z,302
2023-01-29T06:56:22.870Z,303
2023-01-29T06:56:54.681Z,305
2023-01-29T06:57:25.231Z,306
2023-01-29T06:57:56.484Z,305
2023-01-29T06:58:27.901Z,306
2023-01-29T06:58:58.546Z,306
2023-01-29T06:59:28.870Z,307
2023-01-29T07:00:02.902Z,308
2023-01-29T07:00:31.648Z,308
2023-01-29T07:01:02.434Z,308
2023-01-29T07:01:36.393Z,308
2023-01-29T07:02:05.502Z,310
2023-01-29T07:02:34.871Z,308
2023-01-29T07:03:06.421Z,307
2023-01-29T07:03:37.874Z,309
2023-01-29T07:04:08.499Z,308
2023-01-29T07:04:38.827Z,309